TimeCDT,TemperatureF,Dew PointF,Humidity,Sea Level PressureIn,VisibilityMPH,Wind Direction,Wind SpeedMPH,Gust SpeedMPH,PrecipitationIn,Events,Conditions,WindDirDegrees,DateUTC
12:35 AM,35.6,26.6,70,30.12,10.0,Calm,Calm,-,N/A,,Clear,0,2012-10-30 05:35:00
12:55 AM,33.8,26.6,75,30.11,10.0,Calm,Calm,-,N/A,,Clear,0,2012-10-30 05:55:00
1:15 AM,33.8,26.6,75,30.11,10.0,West,3.5,-,N/A,,Clear,270,2012-10-30 06:15:00
3:15 AM,33.8,26.6,75,30.09,10.0,Calm,Calm,-,N/A,,Clear,0,2012-10-30 08:15:00
3:55 AM,30.2,24.8,80,30.09,10.0,Calm,Calm,-,N/A,,Clear,0,2012-10-30 08:55:00
4:15 AM,32.0,24.8,75,30.09,10.0,Calm,Calm,-,N/A,,Clear,0,2012-10-30 09:15:00
4:35 AM,32.0,24.8,75,30.09,10.0,Calm,Calm,-,N/A,,Clear,0,2012-10-30 09:35:00
4:55 AM,30.2,24.8,80,30.09,10.0,Calm,Calm,-,N/A,,Clear,0,2012-10-30 09:55:00
5:55 AM,30.2,24.8,80,30.09,4.0,Calm,Calm,-,N/A,,Overcast,0,2012-10-30 10:55:00
6:15 AM,30.2,24.8,80,30.09,10.0,Calm,Calm,-,N/A,,Mostly Cloudy,0,2012-10-30 11:15:00
6:35 AM,30.2,24.8,80,30.08,6.0,Calm,Calm,-,N/A,,Scattered Clouds,0,2012-10-30 11:35:00
6:55 AM,30.2,24.8,80,30.08,6.0,Calm,Calm,-,N/A,,Clear,0,2012-10-30 11:55:00
7:36 AM,30.2,24.8,80,30.08,10.0,Calm,Calm,-,N/A,,Clear,0,2012-10-30 12:36:00
7:55 AM,30.2,24.8,80,30.08,10.0,Calm,Calm,-,N/A,,Clear,0,2012-10-30 12:55:00
8:15 AM,30.2,24.8,80,30.09,10.0,Calm,Calm,-,N/A,,Clear,0,2012-10-30 13:15:00
8:55 AM,33.8,26.6,75,30.08,10.0,Calm,Calm,-,N/A,,Clear,0,2012-10-30 13:55:00
9:15 AM,37.4,30.2,75,30.09,10.0,Calm,Calm,-,N/A,,Clear,0,2012-10-30 14:15:00
9:35 AM,39.2,33.8,81,30.09,10.0,Calm,Calm,-,N/A,,Clear,0,2012-10-30 14:35:00
9:55 AM,41.0,33.8,76,30.09,10.0,Calm,Calm,-,N/A,,Clear,0,2012-10-30 14:55:00
10:15 AM,44.6,33.8,66,30.08,10.0,Calm,Calm,-,N/A,,Clear,0,2012-10-30 15:15:00
10:55 AM,48.2,28.4,46,30.07,10.0,Calm,Calm,-,N/A,,Clear,0,2012-10-30 15:55:00
11:15 AM,48.2,30.2,50,30.07,10.0,Calm,Calm,-,N/A,,Clear,0,2012-10-30 16:15:00
11:35 AM,51.8,28.4,41,30.06,10.0,Calm,Calm,-,N/A,,Clear,0,2012-10-30 16:35:00
11:55 AM,51.8,30.2,44,30.06,10.0,East,5.8,-,N/A,,Clear,90,2012-10-30 16:55:00
12:15 PM,53.6,28.4,38,30.05,10.0,East,4.6,-,N/A,,Clear,80,2012-10-30 17:15:00
12:35 PM,55.4,30.2,38,30.03,10.0,Calm,Calm,-,N/A,,Clear,0,2012-10-30 17:35:00
1:15 PM,57.2,30.2,36,30.01,10.0,NE,3.5,-,N/A,,Clear,50,2012-10-30 18:15:00
1:35 PM,57.2,30.2,36,30.00,10.0,Calm,Calm,-,N/A,,Clear,0,2012-10-30 18:35:00
1:55 PM,59.0,32.0,36,29.99,10.0,East,3.5,-,N/A,,Clear,90,2012-10-30 18:55:00
2:35 PM,59.0,32.0,36,29.97,10.0,Calm,Calm,-,N/A,,Clear,0,2012-10-30 19:35:00
2:55 PM,60.8,30.2,31,29.96,10.0,ENE,5.8,-,N/A,,Clear,70,2012-10-30 19:55:00
3:16 PM,59.0,32.0,36,29.95,10.0,South,4.6,-,N/A,,Clear,170,2012-10-30 20:16:00
3:55 PM,60.8,33.8,36,29.94,10.0,Calm,Calm,-,N/A,,Clear,0,2012-10-30 20:55:00
4:55 PM,60.8,32.0,34,29.94,10.0,Calm,Calm,-,N/A,,Partly Cloudy,0,2012-10-30 21:55:00
5:35 PM,60.8,33.8,36,29.94,10.0,Calm,Calm,-,N/A,,Mostly Cloudy,0,2012-10-30 22:35:00
5:55 PM,59.0,35.6,42,29.94,10.0,Calm,Calm,-,N/A,,Mostly Cloudy,0,2012-10-30 22:55:00
6:15 PM,57.2,33.8,41,29.94,10.0,Calm,Calm,-,N/A,,Partly Cloudy,0,2012-10-30 23:15:00
6:35 PM,55.4,35.6,47,29.94,10.0,Calm,Calm,-,N/A,,Partly Cloudy,0,2012-10-30 23:35:00
7:15 PM,53.6,35.6,51,29.94,10.0,Calm,Calm,-,N/A,,Partly Cloudy,0,2012-10-31 00:15:00
7:55 PM,51.8,35.6,54,29.95,10.0,Calm,Calm,-,N/A,,Clear,0,2012-10-31 00:55:00
8:15 PM,50.0,33.8,54,29.95,10.0,Calm,Calm,-,N/A,,Mostly Cloudy,0,2012-10-31 01:15:00
8:35 PM,48.2,35.6,62,29.96,10.0,Calm,Calm,-,N/A,,Mostly Cloudy,0,2012-10-31 01:35:00
9:15 PM,48.2,33.8,58,29.96,10.0,Calm,Calm,-,N/A,,Clear,0,2012-10-31 02:15:00
9:35 PM,46.4,33.8,62,29.96,10.0,Calm,Calm,-,N/A,,Clear,0,2012-10-31 02:35:00
10:15 PM,46.4,33.8,62,29.96,10.0,NNE,3.5,-,N/A,,Partly Cloudy,30,2012-10-31 03:15:00
10:35 PM,46.4,33.8,62,29.96,10.0,Calm,Calm,-,N/A,,Clear,0,2012-10-31 03:35:00
10:55 PM,44.6,33.8,66,29.97,10.0,Calm,Calm,-,N/A,,Clear,0,2012-10-31 03:55:00
11:15 PM,42.8,33.8,70,29.96,10.0,Calm,Calm,-,N/A,,Clear,0,2012-10-31 04:15:00
11:35 PM,42.8,33.8,70,29.96,10.0,Calm,Calm,-,N/A,,Clear,0,2012-10-31 04:35:00
11:55 PM,42.8,33.8,70,29.96,10.0,Calm,Calm,-,N/A,,Clear,0,2012-10-31 04:55:00